createdAt,value
2022-12-01T00:01:11.522Z,21.87
2022-12-01T00:04:17.146Z,21.87
2022-12-01T00:07:20.585Z,21.85
2022-12-01T00:10:26.388Z,21.82
2022-12-01T00:13:30.153Z,21.82
2022-12-01T00:16:34.959Z,21.81
2022-12-01T00:19:39.857Z,21.81
2022-12-01T00:22:44.800Z,21.78
2022-12-01T00:25:48.449Z,21.76
2022-12-01T00:28:53.384Z,21.73
2022-12-01T00:31:57.136Z,21.72
2022-12-01T00:35:02.257Z,21.73
2022-12-01T00:38:06.358Z,21.69
2022-12-01T00:41:10.610Z,21.68
2022-12-01T00:44:13.882Z,21.67
2022-12-01T00:47:17.824Z,21.66
2022-12-01T00:50:24.974Z,21.68
2022-12-01T00:53:33.002Z,21.65
2022-12-01T00:56:36.933Z,21.64
2022-12-01T00:59:41.210Z,21.63
2022-12-01T01:02:44.803Z,21.61
2022-12-01T01:05:49.896Z,21.63
2022-12-01T01:08:53.562Z,21.60
2022-12-01T01:11:57.249Z,21.61
2022-12-01T01:15:00.657Z,21.61
2022-12-01T01:18:05.327Z,21.59
2022-12-01T01:21:14.644Z,21.61
2022-12-01T01:24:18.544Z,21.58
2022-12-01T01:27:22.212Z,21.59
2022-12-01T01:30:26.214Z,21.58
2022-12-01T01:33:31.364Z,21.60
2022-12-01T01:36:36.423Z,21.59
2022-12-01T01:39:40.001Z,21.59
2022-12-01T01:42:43.721Z,21.58
2022-12-01T01:45:49.420Z,21.59
2022-12-01T01:49:00.695Z,21.59
2022-12-01T01:52:06.106Z,21.59
2022-12-01T01:55:12.280Z,21.59
2022-12-01T01:58:16.149Z,21.58
2022-12-01T02:01:19.984Z,21.58
2022-12-01T02:04:26.144Z,21.59
2022-12-01T02:07:31.281Z,21.59
2022-12-01T02:10:59.664Z,21.61
2022-12-01T02:14:14.855Z,21.58
2022-12-01T02:17:35.245Z,21.59
2022-12-01T02:21:17.666Z,21.60
2022-12-01T02:25:02.909Z,21.58
2022-12-01T02:28:48.297Z,21.54
2022-12-01T02:32:05.622Z,21.52
2022-12-01T02:35:22.465Z,21.52
2022-12-01T02:38:32.568Z,21.50
2022-12-01T02:41:44.958Z,21.50
2022-12-01T02:44:50.048Z,21.46
2022-12-01T02:48:01.351Z,21.47
2022-12-01T02:51:14.213Z,21.47
2022-12-01T02:54:20.470Z,21.44
2022-12-01T02:57:25.438Z,21.43
2022-12-01T03:00:32.198Z,21.43
2022-12-01T03:04:03.752Z,21.46
2022-12-01T03:07:24.266Z,21.42
2022-12-01T03:10:42.094Z,21.40
2022-12-01T03:13:58.584Z,21.41
2022-12-01T03:17:12.081Z,21.41
2022-12-01T03:20:28.866Z,21.40
2022-12-01T03:23:38.977Z,21.40
2022-12-01T03:26:47.868Z,21.39
2022-12-01T03:29:56.940Z,21.37
2022-12-01T03:33:09.648Z,21.39
2022-12-01T03:36:25.496Z,21.38
2022-12-01T03:39:34.755Z,21.37
2022-12-01T03:42:45.748Z,21.38
2022-12-01T03:45:59.485Z,21.38
2022-12-01T03:49:03.826Z,21.37
2022-12-01T03:52:22.177Z,21.39
2022-12-01T03:55:30.147Z,21.40
2022-12-01T03:58:42.518Z,21.41
2022-12-01T04:01:47.046Z,21.41
2022-12-01T04:04:50.833Z,21.42
2022-12-01T04:07:55.950Z,21.43
2022-12-01T04:10:59.685Z,21.43
2022-12-01T04:14:02.264Z,21.43
2022-12-01T04:17:05.797Z,21.43
2022-12-01T04:20:11.697Z,21.44
2022-12-01T04:23:31.267Z,21.44
2022-12-01T04:26:37.381Z,21.41
2022-12-01T04:29:41.321Z,21.41
2022-12-01T04:32:45.620Z,21.41
2022-12-01T04:35:58.841Z,21.43
2022-12-01T04:39:04.887Z,21.40
2022-12-01T04:42:08.941Z,21.38
2022-12-01T04:45:12.490Z,21.37
2022-12-01T04:48:16.179Z,21.36
2022-12-01T04:51:21.297Z,21.35
2022-12-01T04:54:26.802Z,21.34
2022-12-01T04:57:30.508Z,21.32
2022-12-01T05:00:34.825Z,21.30
2022-12-01T05:03:39.476Z,21.30
2022-12-01T05:06:43.428Z,21.29
2022-12-01T05:09:48.600Z,21.31
2022-12-01T05:12:52.991Z,21.29
2022-12-01T05:16:07.492Z,21.31
2022-12-01T05:19:28.771Z,21.27
2022-12-01T05:23:03.886Z,21.26
2022-12-01T05:25:58.272Z,21.26
2022-12-01T05:29:02.052Z,21.26
2022-12-01T05:32:06.451Z,21.26
2022-12-01T05:35:10.630Z,21.26
2022-12-01T05:38:16.715Z,21.26
2022-12-01T05:41:22.307Z,21.27
2022-12-01T05:44:25.837Z,21.31
2022-12-01T05:47:29.418Z,21.33
2022-12-01T05:50:33.120Z,21.36
2022-12-01T05:53:37.549Z,21.41
2022-12-01T05:56:42.554Z,21.45
2022-12-01T05:59:46.149Z,21.49
2022-12-01T06:02:49.759Z,21.52
2022-12-01T06:05:53.291Z,21.57
2022-12-01T06:08:56.757Z,21.60
2022-12-01T06:12:01.494Z,21.66
2022-12-01T06:15:07.384Z,21.66
2022-12-01T06:18:11.249Z,21.67
2022-12-01T06:21:14.990Z,21.68
2022-12-01T06:24:18.423Z,21.67
2022-12-01T06:27:23.536Z,21.67
2022-12-01T06:30:27.512Z,21.66
2022-12-01T06:33:31.664Z,21.58
2022-12-01T06:36:35.604Z,21.48
2022-12-01T06:39:39.292Z,21.45
2022-12-01T06:42:44.388Z,21.46
2022-12-01T06:45:48.125Z,21.45
2022-12-01T06:48:51.779Z,21.46
2022-12-01T06:51:55.527Z,21.45
2022-12-01T06:55:00.221Z,21.45
2022-12-01T06:58:05.720Z,21.45
2022-12-01T07:01:11.071Z,21.43
2022-12-01T07:04:14.968Z,21.41
2022-12-01T07:07:18.627Z,21.41
2022-12-01T07:10:22.372Z,21.40
2022-12-01T07:13:32.815Z,21.41
2022-12-01T07:16:37.350Z,21.37
2022-12-01T07:19:40.688Z,21.38
2022-12-01T07:22:44.226Z,21.38
2022-12-01T07:25:47.758Z,21.38
2022-12-01T07:28:54.404Z,21.40
2022-12-01T07:31:57.733Z,21.37
2022-12-01T07:35:01.513Z,21.34
2022-12-01T07:38:05.045Z,21.38
2022-12-01T07:41:11.641Z,21.38
2022-12-01T07:44:16.870Z,21.39
2022-12-01T07:47:20.513Z,21.40
2022-12-01T07:50:24.025Z,21.43
2022-12-01T07:53:27.591Z,21.50
2022-12-01T07:56:31.382Z,21.54
2022-12-01T07:59:36.398Z,21.60
2022-12-01T08:02:40.011Z,21.64
2022-12-01T08:05:43.680Z,21.68
2022-12-01T08:08:47.794Z,21.70
2022-12-01T08:11:51.267Z,21.71
2022-12-01T08:14:56.236Z,21.74
2022-12-01T08:18:03.705Z,21.75
2022-12-01T08:21:09.525Z,21.76
2022-12-01T08:24:13.009Z,21.77
2022-12-01T08:27:16.674Z,21.79
2022-12-01T08:30:22.071Z,21.82
2022-12-01T08:33:25.801Z,21.82
2022-12-01T08:36:29.400Z,21.80
2022-12-01T08:39:32.943Z,21.81
2022-12-01T08:42:36.526Z,21.81
2022-12-01T08:45:41.188Z,21.86
2022-12-01T08:48:44.848Z,21.84
2022-12-01T08:51:48.327Z,21.85
2022-12-01T08:54:51.960Z,21.85
2022-12-01T08:57:55.650Z,21.87
2022-12-01T09:01:07.802Z,21.90
2022-12-01T09:04:11.330Z,21.86
2022-12-01T09:07:19.150Z,21.86
2022-12-01T09:10:26.480Z,21.87
2022-12-01T09:13:31.328Z,21.91
2022-12-01T09:16:36.742Z,21.95
2022-12-01T09:19:40.639Z,21.96
2022-12-01T09:22:44.176Z,22.01
2022-12-01T09:25:47.825Z,22.04
2022-12-01T09:28:55.365Z,22.09
2022-12-01T09:32:01.963Z,22.10
2022-12-01T09:35:05.907Z,22.07
2022-12-01T09:38:09.916Z,22.04
2022-12-01T09:41:20.284Z,22.04
2022-12-01T09:44:40.043Z,22.01
2022-12-01T09:47:46.669Z,21.98
2022-12-01T09:50:50.299Z,21.97
2022-12-01T09:53:58.179Z,22.02
2022-12-01T09:57:02.019Z,22.03
2022-12-01T10:00:13.821Z,22.07
2022-12-01T10:03:34.626Z,22.11
2022-12-01T10:06:46.218Z,22.12
2022-12-01T10:09:57.911Z,22.14
2022-12-01T10:13:01.541Z,22.12
2022-12-01T10:16:12.221Z,22.14
2022-12-01T10:19:26.345Z,22.16
2022-12-01T10:23:07.973Z,22.18
2022-12-01T10:26:17.673Z,22.12
2022-12-01T10:29:35.263Z,22.14
2022-12-01T10:32:52.327Z,22.16
2022-12-01T10:35:59.048Z,22.18
2022-12-01T10:39:03.666Z,22.19
2022-12-01T10:42:14.644Z,22.21
2022-12-01T10:45:24.161Z,22.21
2022-12-01T10:48:28.024Z,22.19
2022-12-01T10:51:33.504Z,22.16
2022-12-01T10:54:42.340Z,22.09
2022-12-01T10:57:46.702Z,22.09
2022-12-01T11:01:00.406Z,22.19
2022-12-01T11:04:09.432Z,22.25
2022-12-01T11:07:23.054Z,22.28
2022-12-01T11:10:30.209Z,22.23
2022-12-01T11:13:38.016Z,22.19
2022-12-01T11:16:45.163Z,22.13
2022-12-01T11:19:49.782Z,22.07
2022-12-01T11:23:15.314Z,22.04
2022-12-01T11:26:25.136Z,22.03
2022-12-01T11:29:36.607Z,22.10
2022-12-01T11:32:41.180Z,22.14
2022-12-01T11:35:50.831Z,22.19
2022-12-01T11:39:02.501Z,22.21
2022-12-01T11:42:20.805Z,22.22
2022-12-01T11:45:34.844Z,22.31
2022-12-01T11:48:38.320Z,22.32
2022-12-01T11:51:42.213Z,22.38
2022-12-01T11:54:58.236Z,22.40
2022-12-01T11:58:05.385Z,22.36
2022-12-01T12:01:26.520Z,22.37
2022-12-01T12:05:04.625Z,22.38
2022-12-01T12:08:25.304Z,22.40
2022-12-01T12:11:45.466Z,22.44
2022-12-01T12:15:05.934Z,22.47
2022-12-01T12:18:37.283Z,22.46
2022-12-01T12:21:56.445Z,22.37
2022-12-01T12:25:21.276Z,22.35
2022-12-01T12:28:45.814Z,22.31
2022-12-01T12:32:10.932Z,22.31
2022-12-01T12:35:36.663Z,22.32
2022-12-01T12:39:03.982Z,22.33
2022-12-01T12:42:22.925Z,22.29
2022-12-01T12:45:49.981Z,22.29
2022-12-01T12:49:20.205Z,22.27
2022-12-01T12:52:30.107Z,22.25
2022-12-01T12:55:40.932Z,22.25
2022-12-01T12:58:58.141Z,22.26
2022-12-01T13:02:16.983Z,22.24
2022-12-01T13:05:28.974Z,22.21
2022-12-01T13:08:41.932Z,22.17
2022-12-01T13:11:56.583Z,22.12
2022-12-01T13:15:15.408Z,22.08
2022-12-01T13:18:34.590Z,22.04
2022-12-01T13:21:43.242Z,21.93
2022-12-01T13:24:47.064Z,21.88
2022-12-01T13:27:53.473Z,21.87
2022-12-01T13:31:05.162Z,21.90
2022-12-01T13:34:25.357Z,21.93
2022-12-01T13:37:33.019Z,21.91
2022-12-01T13:43:55.646Z,22.02
2022-12-01T13:47:04.725Z,22.00
2022-12-01T13:50:58.379Z,22.08
2022-12-01T13:54:27.305Z,22.07
2022-12-01T13:57:34.319Z,22.07
2022-12-01T14:00:38.206Z,22.01
2022-12-01T14:03:42.319Z,21.99
2022-12-01T14:06:50.012Z,21.99
2022-12-01T14:09:58.915Z,21.95
2022-12-01T14:13:06.985Z,21.93
2022-12-01T14:16:11.425Z,21.92
2022-12-01T14:19:34.212Z,22.00
2022-12-01T14:22:44.032Z,21.98
2022-12-01T14:26:06.059Z,22.04
2022-12-01T14:29:33.053Z,22.08
2022-12-01T14:32:36.619Z,22.03
2022-12-01T14:35:40.820Z,22.07
2022-12-01T14:38:48.665Z,22.08
2022-12-01T14:41:58.465Z,22.08
2022-12-01T14:45:06.718Z,22.09
2022-12-01T14:48:16.873Z,22.08
2022-12-01T14:51:28.748Z,22.08
2022-12-01T14:54:44.200Z,22.04
2022-12-01T14:57:51.903Z,22.01
2022-12-01T15:01:07.367Z,21.98
2022-12-01T15:04:10.862Z,21.93
2022-12-01T15:07:14.423Z,21.90
2022-12-01T15:10:22.979Z,21.91
2022-12-01T15:13:30.767Z,21.86
2022-12-01T15:16:43.262Z,21.87
2022-12-01T15:19:47.264Z,21.80
2022-12-01T15:22:53.011Z,21.80
2022-12-01T15:25:58.788Z,21.86
2022-12-01T15:29:16.910Z,21.91
2022-12-01T15:32:23.794Z,21.92
2022-12-01T15:35:28.003Z,21.93
2022-12-01T15:38:35.611Z,21.98
2022-12-01T15:41:44.240Z,22.01
2022-12-01T15:45:00.582Z,22.04
2022-12-01T15:48:17.874Z,22.06
2022-12-01T15:51:27.960Z,22.04
2022-12-01T15:54:31.976Z,22.02
2022-12-01T15:57:37.201Z,22.01
2022-12-01T16:00:40.559Z,21.98
2022-12-01T16:03:57.838Z,21.98
2022-12-01T16:07:06.163Z,21.90
2022-12-01T16:10:30.406Z,21.89
2022-12-01T16:13:45.772Z,21.83
2022-12-01T16:16:52.471Z,21.78
2022-12-01T16:20:19.924Z,21.79
2022-12-01T16:23:27.265Z,21.72
2022-12-01T16:26:32.765Z,21.68
2022-12-01T16:29:50.747Z,21.67
2022-12-01T16:33:03.408Z,21.63
2022-12-01T16:36:07.968Z,21.58
2022-12-01T16:39:12.630Z,21.53
2022-12-01T16:42:20.547Z,21.52
2022-12-01T16:45:26.802Z,21.49
2022-12-01T16:48:31.523Z,21.45
2022-12-01T16:51:54.182Z,21.43
2022-12-01T16:54:58.657Z,21.39
2022-12-01T16:58:02.181Z,21.38
2022-12-01T17:01:09.404Z,21.37
2022-12-01T17:04:12.784Z,21.36
2022-12-01T17:07:16.397Z,21.36
2022-12-01T17:10:19.958Z,21.34
2022-12-01T17:13:24.690Z,21.34
2022-12-01T17:16:29.488Z,21.35
2022-12-01T17:19:33.051Z,21.32
2022-12-01T17:22:36.946Z,21.32
2022-12-01T17:25:41.893Z,21.36
2022-12-01T17:28:45.433Z,21.36
2022-12-01T17:31:50.428Z,21.38
2022-12-01T17:34:53.706Z,21.38
2022-12-01T17:37:57.397Z,21.41
2022-12-01T17:41:03.523Z,21.43
2022-12-01T17:44:07.409Z,21.44
2022-12-01T17:47:12.523Z,21.45
2022-12-01T17:50:16.924Z,21.45
2022-12-01T17:53:20.399Z,21.44
2022-12-01T17:56:24.052Z,21.44
2022-12-01T17:59:27.493Z,21.44
2022-12-01T18:02:32.854Z,21.42
2022-12-01T18:05:36.198Z,21.40
2022-12-01T18:08:40.897Z,21.39
2022-12-01T18:11:44.219Z,21.36
2022-12-01T18:14:48.437Z,21.34
2022-12-01T18:17:53.611Z,21.34
2022-12-01T18:20:57.235Z,21.31
2022-12-01T18:24:04.056Z,21.39
2022-12-01T18:27:07.815Z,22.11
2022-12-01T18:30:13.110Z,23.19
2022-12-01T18:33:18.214Z,24.01
2022-12-01T18:36:24.978Z,24.63
2022-12-01T18:39:28.905Z,25.11
2022-12-01T18:42:32.916Z,25.50
2022-12-01T18:45:40.115Z,25.83
2022-12-01T18:48:48.027Z,26.14
2022-12-01T18:51:51.774Z,26.44
2022-12-01T18:54:55.305Z,26.70
2022-12-01T18:57:58.918Z,26.82
2022-12-01T19:01:03.530Z,26.91
2022-12-01T19:04:12.126Z,27.04
2022-12-01T19:07:15.483Z,27.16
2022-12-01T19:10:19.188Z,27.27
2022-12-01T19:13:22.409Z,27.30
2022-12-01T19:16:26.791Z,27.37
2022-12-01T19:19:37.111Z,27.45
2022-12-01T19:22:41.355Z,27.50
2022-12-01T19:25:44.697Z,27.53
2022-12-01T19:28:49.896Z,27.58
2022-12-01T19:31:53.532Z,27.60
2022-12-01T19:34:58.657Z,27.64
2022-12-01T19:38:02.052Z,27.67
2022-12-01T19:41:06.295Z,27.72
2022-12-01T19:44:10.806Z,27.76
2022-12-01T19:47:19.071Z,27.79
2022-12-01T19:50:26.484Z,27.85
2022-12-01T19:53:33.543Z,27.87
2022-12-01T19:56:37.675Z,27.89
2022-12-01T19:59:42.921Z,27.89
2022-12-01T20:02:46.213Z,27.89
2022-12-01T20:05:51.278Z,27.92
2022-12-01T20:08:58.131Z,27.95
2022-12-01T20:12:01.836Z,27.96
2022-12-01T20:15:08.644Z,27.97
2022-12-01T20:18:14.569Z,27.99
2022-12-01T20:21:23.029Z,28.05
2022-12-01T20:24:26.622Z,28.09
2022-12-01T20:27:30.645Z,28.13
2022-12-01T20:30:34.269Z,28.16
2022-12-01T20:33:37.994Z,28.20
2022-12-01T20:36:43.516Z,28.23
2022-12-01T20:39:47.393Z,28.24
2022-12-01T20:42:51.125Z,28.22
2022-12-01T20:45:54.432Z,28.23
2022-12-01T20:48:58.997Z,28.29
2022-12-01T20:52:03.548Z,28.31
2022-12-01T20:55:08.642Z,28.29
2022-12-01T20:58:13.432Z,28.31
2022-12-01T21:01:18.703Z,28.32
2022-12-01T21:04:22.336Z,28.38
2022-12-01T21:07:27.565Z,28.38
2022-12-01T21:10:31.017Z,28.35
2022-12-01T21:13:42.131Z,28.38
2022-12-01T21:16:49.180Z,28.38
2022-12-01T21:20:02.478Z,28.38
2022-12-01T21:23:13.827Z,28.35
2022-12-01T21:26:20.189Z,28.33
2022-12-01T21:29:25.889Z,28.32
2022-12-01T21:32:32.612Z,28.29
2022-12-01T21:35:36.001Z,28.27
2022-12-01T21:38:43.243Z,28.27
2022-12-01T21:41:46.470Z,28.24
2022-12-01T21:44:50.780Z,28.25
2022-12-01T21:47:58.359Z,28.25
2022-12-01T21:51:12.909Z,28.27
2022-12-01T21:54:22.640Z,28.27
2022-12-01T21:57:43.055Z,28.27
2022-12-01T22:00:46.983Z,28.25
2022-12-01T22:03:51.617Z,28.25
2022-12-01T22:06:57.356Z,28.29
2022-12-01T22:10:08.865Z,28.30
2022-12-01T22:13:13.886Z,28.32
2022-12-01T22:16:21.879Z,28.34
2022-12-01T22:19:32.639Z,28.37
2022-12-01T22:22:39.436Z,28.36
2022-12-01T22:25:44.371Z,28.38
2022-12-01T22:28:48.833Z,28.40
2022-12-01T22:31:52.494Z,28.41
2022-12-01T22:35:01.527Z,28.40
2022-12-01T22:38:32.808Z,28.40
2022-12-01T22:41:37.800Z,28.41
2022-12-01T22:44:42.602Z,28.38
2022-12-01T22:47:46.360Z,28.36
2022-12-01T22:50:51.886Z,28.33
2022-12-01T22:54:03.085Z,28.30
2022-12-01T22:57:28.383Z,28.24
2022-12-01T23:00:32.030Z,28.21
2022-12-01T23:03:35.270Z,28.20
2022-12-01T23:07:10.541Z,28.16
2022-12-01T23:10:17.721Z,28.11
2022-12-01T23:13:25.568Z,28.10
2022-12-01T23:16:28.947Z,28.09
2022-12-01T23:19:33.435Z,28.11
2022-12-01T23:22:36.653Z,28.10
2022-12-01T23:25:41.270Z,28.08
2022-12-01T23:28:47.355Z,28.07
2022-12-01T23:31:51.644Z,28.02
2022-12-01T23:34:59.903Z,27.99
2022-12-01T23:38:04.445Z,28.00
2022-12-01T23:41:14.766Z,28.02
2022-12-01T23:44:25.900Z,28.05
2022-12-01T23:47:31.206Z,28.02
2022-12-01T23:50:35.155Z,28.02
2022-12-01T23:53:41.389Z,28.04
2022-12-01T23:56:51.919Z,28.05
